Time;durP1;ratioP1;P1;durP2;ratioP2;P2;SDS_P1;SDS_P2;PMS_P1;PMS_P2;Temp;Humidity;BMP_temperature;BMP_pressure;BME280_temperature;BME280_humidity;BME280_pressure;Samples;Min_cycle;Max_cycle;Signal;HPM_P1;HPM_P2
2021/06/14 00:00:08;;;;;;;19.45;13.38;;;;;;;14.82;75.31;99439.00;5034094;28;20070;-83
2021/06/14 00:02:39;;;;;;;17.30;11.18;;;;;;;14.79;75.73;99426.00;5010816;28;20088;-82
2021/06/14 00:05:09;;;;;;;15.98;11.68;;;;;;;14.87;75.89;99434.47;5011462;28;20044;-81
2021/06/14 00:07:35;;;;;;;17.90;11.70;;;;;;;14.84;76.03;99438.97;5010121;28;20045;-82
2021/06/14 00:10:03;;;;;;;17.98;11.00;;;;;;;14.75;76.00;99435.72;5015806;28;20121;-83
2021/06/14 00:12:29;;;;;;;19.35;12.82;;;;;;;14.68;76.06;99438.56;5010740;28;20129;-81
2021/06/14 00:14:56;;;;;;;16.02;11.70;;;;;;;14.74;76.12;99454.97;5028127;28;20068;-84
2021/06/14 00:17:22;;;;;;;14.20;10.20;;;;;;;14.71;76.02;99451.59;5011584;28;20041;-82
2021/06/14 00:19:49;;;;;;;16.88;10.45;;;;;;;14.67;76.32;99453.44;5027554;28;20133;-82
2021/06/14 00:22:20;;;;;;;13.23;10.25;;;;;;;14.66;76.40;99461.31;4994635;28;20052;-81
2021/06/14 00:24:46;;;;;;;14.50;10.15;;;;;;;14.62;76.33;99465.81;5011224;28;20705;-79
2021/06/14 00:27:12;;;;;;;13.13;10.23;;;;;;;14.61;76.35;99469.31;5013145;28;20182;-83
2021/06/14 00:29:38;;;;;;;16.33;11.07;;;;;;;14.58;76.23;99464.19;5010304;28;20037;-82
2021/06/14 00:32:05;;;;;;;21.08;13.30;;;;;;;14.57;76.52;99463.31;5010328;28;20160;-81
2021/06/14 00:34:31;;;;;;;19.33;13.50;;;;;;;14.58;76.48;99458.94;5011953;28;20038;-82
2021/06/14 00:36:57;;;;;;;21.85;13.52;;;;;;;14.59;76.46;99458.88;5014058;28;20172;-82
2021/06/14 00:39:23;;;;;;;16.13;12.20;;;;;;;14.48;76.36;99452.25;5016419;28;20162;-81
2021/06/14 00:41:49;;;;;;;16.58;11.75;;;;;;;14.56;76.60;99465.97;5016142;28;20046;-81
2021/06/14 00:44:15;;;;;;;17.88;11.30;;;;;;;14.56;76.79;99465.97;5015915;28;20042;-80
2021/06/14 00:46:41;;;;;;;17.08;11.20;;;;;;;14.53;76.88;99460.84;5014694;28;20103;-81
2021/06/14 00:49:06;;;;;;;17.73;11.23;;;;;;;14.60;76.79;99488.56;5014420;28;20061;-81
2021/06/14 00:51:32;;;;;;;15.27;10.73;;;;;;;14.50;76.48;99476.63;5030087;28;20049;-80
2021/06/14 00:54:00;;;;;;;18.42;12.32;;;;;;;14.53;76.77;99492.25;5014063;28;20137;-80
2021/06/14 00:56:29;;;;;;;16.23;11.52;;;;;;;14.51;76.68;99494.94;5030947;28;20523;-80
2021/06/14 00:58:55;;;;;;;19.60;12.93;;;;;;;14.35;76.51;99467.47;5020981;28;20073;-80
2021/06/14 01:01:21;;;;;;;17.90;12.85;;;;;;;14.29;77.04;99463.28;5013274;28;20073;-80
2021/06/14 01:03:50;;;;;;;14.32;10.98;;;;;;;14.34;76.96;99473.63;5014567;28;20041;-81
2021/06/14 01:06:17;;;;;;;22.60;15.70;;;;;;;14.46;76.86;99487.19;5013963;28;20054;-82
2021/06/14 01:08:49;;;;;;;19.67;14.40;;;;;;;14.28;77.26;99451.09;5013519;28;20128;-81
2021/06/14 01:11:41;;;;;;;24.55;14.65;;;;;;;14.53;77.42;99481.78;5013525;28;20046;-81
2021/06/14 01:14:23;;;;;;;20.77;14.00;;;;;;;14.52;77.39;99470.47;5014825;28;20116;-81
2021/06/14 01:16:58;;;;;;;23.40;13.93;;;;;;;14.55;77.31;99461.66;5013008;28;20037;-81
2021/06/14 01:19:43;;;;;;;17.83;13.38;;;;;;;14.67;77.42;99487.47;5030320;28;20611;-81
2021/06/14 01:22:12;;;;;;;19.30;13.70;;;;;;;14.71;77.42;99491.72;5013997;28;20477;-82
2021/06/14 01:24:50;;;;;;;15.15;11.75;;;;;;;14.63;77.35;99461.41;5030400;28;20046;-80
2021/06/14 01:27:26;;;;;;;16.10;12.35;;;;;;;14.63;77.44;99461.41;5013560;28;20133;-83
2021/06/14 01:29:55;;;;;;;20.00;12.90;;;;;;;14.78;77.17;99481.06;5030432;28;20196;-82
2021/06/14 01:32:21;;;;;;;23.88;12.77;;;;;;;14.82;77.18;99487.91;4997227;28;20423;-82
2021/06/14 01:34:47;;;;;;;20.45;11.57;;;;;;;14.81;77.29;99471.34;5013565;28;20045;-82
2021/06/14 01:37:16;;;;;;;16.17;12.38;;;;;;;14.76;77.15;99463.63;5014462;28;20033;-81
2021/06/14 01:39:44;;;;;;;20.45;12.70;;;;;;;14.91;77.22;99485.00;5013277;28;20477;-80
2021/06/14 01:42:12;;;;;;;20.27;12.75;;;;;;;14.86;77.15;99473.81;5012717;28;20045;-82
2021/06/14 01:44:40;;;;;;;22.88;13.18;;;;;;;14.83;77.11;99461.66;5029275;28;20049;-81
2021/06/14 01:47:09;;;;;;;17.60;12.68;;;;;;;14.85;76.98;99454.63;5029390;28;20080;-81
2021/06/14 01:49:38;;;;;;;17.42;12.63;;;;;;;14.91;76.95;99472.78;5030671;28;20056;-81
2021/06/14 01:52:15;;;;;;;16.60;13.07;;;;;;;15.10;77.06;99493.13;5029751;28;20065;-81
2021/06/14 01:54:43;;;;;;;17.42;11.90;;;;;;;15.15;76.93;99498.22;5013222;28;20057;-82
2021/06/14 01:57:15;;;;;;;21.30;11.85;;;;;;;15.24;76.69;99516.28;5013081;28;20033;-81
2021/06/14 02:00:10;;;;;;;16.88;11.18;;;;;;;15.28;76.71;99507.41;5017805;28;20136;-81
2021/06/14 02:02:52;;;;;;;21.88;13.60;;;;;;;15.31;76.38;99520.41;4982246;28;20048;-80
2021/06/14 02:05:42;;;;;;;18.05;12.55;;;;;;;15.29;76.30;99527.47;5012450;28;20049;-81
2021/06/14 02:08:10;;;;;;;17.60;11.40;;;;;;;15.36;76.68;99526.34;4980172;28;20516;-80
2021/06/14 02:10:37;;;;;;;17.77;12.65;;;;;;;15.46;76.27;99524.25;5026423;28;20063;-81
2021/06/14 02:13:05;;;;;;;18.80;12.50;;;;;;;15.43;76.35;99513.03;5033364;28;20413;-81
2021/06/14 02:15:32;;;;;;;23.00;12.68;;;;;;;15.49;76.39;99515.47;5015917;28;20041;-81
2021/06/14 02:18:01;;;;;;;16.92;12.68;;;;;;;15.57;76.17;99523.91;5049865;28;20041;-82
2021/06/14 02:20:28;;;;;;;24.25;16.08;;;;;;;15.55;75.43;99517.00;5037198;28;20405;-82
2021/06/14 02:22:55;;;;;;;28.85;19.30;;;;;;;15.63;76.07;99538.59;5052178;28;20418;-81
2021/06/14 02:25:21;;;;;;;19.52;14.48;;;;;;;15.73;76.19;99539.97;5035916;28;20126;-81
2021/06/14 02:27:53;;;;;;;25.13;15.38;;;;;;;15.84;75.99;99541.41;5031780;28;20042;-83
2021/06/14 02:30:23;;;;;;;21.08;14.45;;;;;;;16.00;75.92;99554.88;5048633;28;20045;-82
2021/06/14 02:32:51;;;;;;;21.15;14.35;;;;;;;16.10;75.84;99545.75;5015627;28;20033;-83
2021/06/14 02:35:20;;;;;;;18.92;14.48;;;;;;;16.24;75.72;99555.75;5015786;28;20110;-83
2021/06/14 02:37:48;;;;;;;22.73;14.65;;;;;;;16.34;75.44;99554.47;5016098;28;20033;-81
2021/06/14 02:40:16;;;;;;;20.20;14.10;;;;;;;16.33;75.23;99549.31;5032212;28;20406;-82
2021/06/14 02:42:45;;;;;;;20.83;15.25;;;;;;;16.49;75.19;99554.84;5015949;28;20120;-82
2021/06/14 02:45:12;;;;;;;24.40;17.30;;;;;;;16.63;74.75;99562.22;5015063;28;20568;-84
2021/06/14 02:47:39;;;;;;;30.77;19.02;;;;;;;16.69;74.97;99577.72;5031753;28;20420;-82
2021/06/14 02:50:09;;;;;;;34.15;23.63;;;;;;;16.71;74.41;99565.41;5033209;28;20475;-81
2021/06/14 02:52:37;;;;;;;31.90;22.65;;;;;;;16.77;74.01;99578.31;5016595;28;20045;-82
2021/06/14 02:55:07;;;;;;;31.30;22.65;;;;;;;16.82;74.14;99570.22;5033980;28;20139;-82
2021/06/14 02:57:35;;;;;;;30.95;22.15;;;;;;;16.95;74.14;99571.53;5047522;28;20038;-83
2021/06/14 03:00:07;;;;;;;37.38;23.42;;;;;;;17.12;74.22;99573.47;5019181;28;20077;-82
2021/06/14 03:02:36;;;;;;;34.13;23.30;;;;;;;17.23;73.90;99570.41;4980976;28;20052;-81
2021/06/14 03:05:04;;;;;;;34.20;22.30;;;;;;;17.26;73.39;99586.06;4996526;28;20053;-83
2021/06/14 03:07:31;;;;;;;33.50;22.00;;;;;;;17.42;73.08;99591.56;5027850;28;20048;-81
2021/06/14 03:09:58;;;;;;;30.63;20.48;;;;;;;17.56;73.45;99590.13;5012072;28;20061;-82
2021/06/14 03:12:26;;;;;;;32.65;19.20;;;;;;;17.70;73.20;99579.03;5011125;28;20060;-82
2021/06/14 03:14:53;;;;;;;26.65;18.13;;;;;;;17.87;72.91;99588.88;5028565;28;20101;-81
2021/06/14 03:17:20;;;;;;;37.08;24.50;;;;;;;18.03;72.76;99578.59;5022464;28;20033;-81
2021/06/14 03:19:47;;;;;;;29.25;19.23;;;;;;;18.23;72.17;99593.50;5030805;28;20045;-81
2021/06/14 03:22:15;;;;;;;25.33;17.10;;;;;;;18.28;71.95;99588.88;5030553;28;20424;-82
2021/06/14 03:24:42;;;;;;;26.15;16.95;;;;;;;18.44;71.89;99588.19;5030093;28;20072;-81
2021/06/14 03:27:11;;;;;;;21.88;15.57;;;;;;;18.63;71.33;99594.38;5014493;28;20037;-81
2021/06/14 03:29:37;;;;;;;19.98;14.93;;;;;;;18.82;70.99;99596.16;5014272;28;20045;-81
2021/06/14 03:32:04;;;;;;;23.23;14.45;;;;;;;19.01;70.73;99595.31;5030888;28;20429;-81
2021/06/14 03:34:32;;;;;;;23.75;15.40;;;;;;;19.15;69.81;99598.13;5032119;28;20041;-81
2021/06/14 03:36:59;;;;;;;21.30;14.38;;;;;;;19.33;69.62;99603.44;5030946;28;20072;-82
2021/06/14 03:39:27;;;;;;;18.05;13.63;;;;;;;19.35;69.20;99569.94;5031261;28;20072;-82
2021/06/14 03:41:53;;;;;;;23.20;15.30;;;;;;;19.53;68.16;99586.66;5031998;28;20049;-82
2021/06/14 03:44:20;;;;;;;21.88;13.88;;;;;;;19.80;68.23;99602.91;5031551;28;20052;-82
2021/06/14 03:46:47;;;;;;;19.88;12.82;;;;;;;19.73;67.34;99585.69;5031587;28;20049;-82
2021/06/14 03:49:13;;;;;;;17.25;12.35;;;;;;;19.81;67.34;99578.22;5031864;28;20038;-83
2021/06/14 03:51:43;;;;;;;17.23;11.70;;;;;;;20.15;66.90;99604.69;5014878;28;20045;-83
2021/06/14 03:54:09;;;;;;;18.45;11.60;;;;;;;20.37;67.06;99599.16;5014823;28;20038;-82
2021/06/14 03:56:36;;;;;;;17.38;11.85;;;;;;;20.66;66.06;99607.31;5013124;28;20590;-83
2021/06/14 03:59:04;;;;;;;15.05;9.10;;;;;;;20.72;65.34;99591.13;5031226;28;20635;-82
2021/06/14 04:01:30;;;;;;;13.13;8.82;;;;;;;20.90;64.78;99577.84;5015022;28;20033;-82
2021/06/14 04:06:28;;;;;;;11.48;7.50;;;;;;;21.45;63.92;99608.28;5027128;28;20544;-81
2021/06/14 04:08:56;;;;;;;13.65;8.30;;;;;;;21.51;63.12;99589.41;5010864;28;20038;-83
2021/06/14 04:11:23;;;;;;;8.38;6.68;;;;;;;21.64;62.33;99600.16;5030890;28;20056;-80
2021/06/14 04:13:49;;;;;;;12.30;7.20;;;;;;;21.73;61.82;99598.78;5029687;28;20045;-82
2021/06/14 04:16:17;;;;;;;11.25;7.05;;;;;;;21.59;61.74;99565.13;5012218;28;20052;-83
2021/06/14 04:18:43;;;;;;;9.48;7.00;;;;;;;21.93;61.02;99587.00;5010982;28;20034;-82
2021/06/14 04:21:09;;;;;;;8.13;6.35;;;;;;;22.05;60.48;99582.78;5010816;28;20045;-82
2021/06/14 04:23:35;;;;;;;9.20;6.50;;;;;;;22.34;59.87;99608.44;5012586;28;20045;-84
2021/06/14 04:26:02;;;;;;;10.48;6.85;;;;;;;22.18;59.62;99556.38;5010640;28;20092;-83
2021/06/14 04:28:28;;;;;;;11.05;6.80;;;;;;;22.64;59.14;99600.44;4993476;28;20447;-83
2021/06/14 04:30:54;;;;;;;8.85;6.82;;;;;;;22.50;58.63;99561.53;5013707;28;20050;-81
2021/06/14 04:33:21;;;;;;;8.85;5.70;;;;;;;23.01;58.42;99623.78;5014320;28;20128;-82
2021/06/14 04:35:47;;;;;;;8.85;5.07;;;;;;;22.80;57.84;99589.72;5012045;28;20053;-82
2021/06/14 04:38:13;;;;;;;6.80;5.10;;;;;;;22.88;57.45;99591.88;5014501;28;20033;-82
2021/06/14 04:40:39;;;;;;;7.25;5.18;;;;;;;23.08;56.98;99603.84;5012716;28;20620;-84
2021/06/14 04:43:05;;;;;;;8.75;5.03;;;;;;;23.36;56.67;99611.88;5013171;28;20042;-80
2021/06/14 04:45:31;;;;;;;10.48;4.97;;;;;;;23.67;56.39;99621.31;5012731;28;20050;-83
2021/06/14 04:47:57;;;;;;;8.68;5.03;;;;;;;23.76;55.35;99604.75;5013330;28;20038;-81
2021/06/14 04:50:23;;;;;;;7.88;5.18;;;;;;;23.98;54.79;99626.41;5012725;28;20050;-81
2021/06/14 04:52:49;;;;;;;6.47;5.30;;;;;;;24.02;54.74;99618.13;5011996;28;20042;-81
2021/06/14 04:55:15;;;;;;;10.90;5.60;;;;;;;24.15;54.42;99617.28;5014766;28;20492;-82
2021/06/14 04:57:40;;;;;;;5.80;4.82;;;;;;;24.42;53.86;99621.63;5021394;28;20049;-82
2021/06/14 05:00:08;;;;;;;7.82;5.40;;;;;;;24.52;53.52;99618.22;5025240;28;20038;-82
2021/06/14 05:02:35;;;;;;;7.95;5.43;;;;;;;24.72;53.02;99628.47;5015578;28;20153;-81
2021/06/14 05:05:01;;;;;;;6.95;5.13;;;;;;;24.74;52.62;99615.91;5016182;28;20038;-81
2021/06/14 05:07:27;;;;;;;8.25;5.50;;;;;;;24.93;52.24;99632.25;5014597;28;20042;-82
2021/06/14 05:09:55;;;;;;;8.48;6.03;;;;;;;24.99;51.65;99609.66;5023925;28;20047;-82
2021/06/14 05:12:22;;;;;;;10.90;6.22;;;;;;;25.20;51.98;99630.34;5038206;28;20164;-81
2021/06/14 05:14:47;;;;;;;7.93;5.60;;;;;;;25.37;51.32;99629.13;5036769;28;20128;-80
2021/06/14 05:17:16;;;;;;;10.50;5.68;;;;;;;25.38;50.97;99630.81;5016436;28;20058;-82
2021/06/14 05:19:45;;;;;;;9.35;5.80;;;;;;;25.51;51.01;99628.97;5034684;28;20102;-80
2021/06/14 05:22:13;;;;;;;8.93;5.78;;;;;;;25.70;51.02;99631.13;5017348;28;20062;-82
2021/06/14 05:24:39;;;;;;;9.50;5.07;;;;;;;25.67;50.55;99615.38;5034829;28;20033;-83
2021/06/14 05:27:06;;;;;;;7.60;5.53;;;;;;;25.93;49.97;99628.53;5037747;28;20042;-82
2021/06/14 05:29:32;;;;;;;12.65;5.22;;;;;;;26.02;49.62;99629.66;5037511;28;20034;-81
2021/06/14 05:31:58;;;;;;;8.30;5.47;;;;;;;26.08;49.51;99621.19;5037879;28;20021;-82
2021/06/14 05:34:24;;;;;;;9.73;5.93;;;;;;;26.14;48.58;99623.44;5037843;28;20097;-82
2021/06/14 05:36:51;;;;;;;5.70;5.07;;;;;;;26.25;48.53;99651.06;5021019;28;20033;-82
2021/06/14 05:39:17;;;;;;;7.40;5.07;;;;;;;26.09;48.35;99644.22;5020132;28;20038;-82
2021/06/14 05:41:43;;;;;;;9.30;5.03;;;;;;;25.96;48.31;99611.44;5051454;28;20044;-80
2021/06/14 05:44:09;;;;;;;9.98;4.93;;;;;;;26.38;48.04;99657.13;5019512;28;20041;-83
2021/06/14 05:46:35;;;;;;;7.82;4.70;;;;;;;26.39;47.97;99658.81;5021626;28;20061;-81
2021/06/14 05:49:03;;;;;;;10.60;4.70;;;;;;;26.50;47.75;99627.81;5033422;28;20046;-82
2021/06/14 05:51:30;;;;;;;5.82;3.70;;;;;;;27.27;47.33;99652.91;5021670;28;20421;-81
2021/06/14 05:53:56;;;;;;;4.40;3.40;;;;;;;28.59;46.48;99634.78;5019006;28;20045;-82
2021/06/14 05:56:23;;;;;;;6.18;3.80;;;;;;;30.74;43.67;99651.13;5000253;28;20041;-81
2021/06/14 05:58:49;;;;;;;6.40;3.42;;;;;;;32.53;40.25;99640.53;5031248;28;20459;-82
2021/06/14 06:01:15;;;;;;;6.07;3.80;;;;;;;34.26;37.25;99623.00;5015109;28;20048;-83
2021/06/14 06:03:41;;;;;;;4.95;3.70;;;;;;;35.80;34.19;99629.88;5013742;28;20089;-82
2021/06/14 06:06:07;;;;;;;6.93;5.65;;;;;;;36.14;31.89;99631.25;5012573;28;20042;-85
2021/06/14 06:08:33;;;;;;;6.82;5.78;;;;;;;36.67;31.16;99631.19;5012996;28;20049;-83
2021/06/14 06:10:59;;;;;;;8.00;5.45;;;;;;;37.09;31.23;99623.38;5032724;28;20033;-84
2021/06/14 06:13:25;;;;;;;8.10;5.38;;;;;;;38.09;30.07;99631.63;5050485;28;20073;-81
2021/06/14 06:15:51;;;;;;;6.43;5.47;;;;;;;38.70;29.29;99623.84;5049438;28;20083;-83
2021/06/14 06:18:17;;;;;;;8.73;5.32;;;;;;;38.99;27.80;99624.63;5016232;28;20041;-82
2021/06/14 06:20:43;;;;;;;6.70;5.45;;;;;;;39.90;26.83;99626.03;5014002;28;20033;-83
2021/06/14 06:23:09;;;;;;;7.20;5.10;;;;;;;40.19;26.58;99625.75;5014363;28;20045;-82
2021/06/14 06:25:34;;;;;;;5.82;4.88;;;;;;;41.22;25.63;99626.91;5013545;28;20037;-84
2021/06/14 06:28:01;;;;;;;4.95;4.45;;;;;;;41.67;24.45;99630.59;5012403;28;20092;-81
2021/06/14 06:30:30;;;;;;;6.18;4.35;;;;;;;42.56;22.86;99638.56;5013902;28;20500;-81
2021/06/14 06:32:56;;;;;;;6.78;4.57;;;;;;;42.96;22.49;99611.78;5013982;28;20468;-81
2021/06/14 06:35:23;;;;;;;4.97;4.30;;;;;;;43.84;21.36;99636.78;4995266;28;20034;-82
2021/06/14 06:37:49;;;;;;;6.43;4.35;;;;;;;43.99;21.20;99619.88;5012464;28;20033;-82
2021/06/14 06:40:15;;;;;;;6.30;4.68;;;;;;;44.60;20.25;99638.78;5013557;28;20421;-85
2021/06/14 06:42:42;;;;;;;5.57;4.10;;;;;;;44.29;19.98;99640.00;5011369;28;20497;-84
2021/06/14 06:45:10;;;;;;;8.00;4.00;;;;;;;44.75;19.77;99626.44;5013096;28;20093;-84
2021/06/14 06:47:37;;;;;;;5.45;3.75;;;;;;;45.53;18.99;99645.19;4996277;28;20038;-84
2021/06/14 06:50:04;;;;;;;3.88;3.10;;;;;;;46.04;18.32;99645.19;5014164;28;20409;-87
2021/06/14 06:52:31;;;;;;;3.92;3.40;;;;;;;46.58;17.76;99651.97;5011815;28;20046;-81
2021/06/14 06:54:57;;;;;;;5.05;3.72;;;;;;;46.88;17.00;99635.03;5013781;28;20042;-84
2021/06/14 06:57:25;;;;;;;6.72;4.15;;;;;;;47.23;16.80;99652.19;5016077;28;20149;-83
2021/06/14 06:59:51;;;;;;;6.40;4.38;;;;;;;47.48;15.69;99654.31;5027054;28;20049;-83
2021/06/14 07:02:17;;;;;;;9.35;3.92;;;;;;;48.05;15.71;99642.91;5011884;28;20049;-85
2021/06/14 07:04:43;;;;;;;5.97;3.67;;;;;;;48.52;15.10;99657.81;5013263;28;20045;-84
2021/06/14 07:07:08;;;;;;;8.65;4.43;;;;;;;48.59;14.55;99660.31;5011440;28;20042;-84
2021/06/14 07:09:34;;;;;;;9.30;4.03;;;;;;;48.60;15.10;99660.03;4995171;28;20100;-84
2021/06/14 07:12:00;;;;;;;9.88;4.30;;;;;;;49.31;14.62;99660.50;5012959;28;20041;-82
2021/06/14 07:14:26;;;;;;;6.25;3.63;;;;;;;49.68;14.14;99661.34;5016785;28;20205;-83
2021/06/14 07:16:53;;;;;;;4.13;3.20;;;;;;;49.78;13.77;99666.00;5020285;28;20384;-84
2021/06/14 07:19:20;;;;;;;7.90;3.25;;;;;;;49.87;13.20;99661.63;5015189;28;20129;-83
2021/06/14 07:21:46;;;;;;;3.53;3.15;;;;;;;49.78;12.87;99655.84;5014554;28;20244;-84
2021/06/14 07:24:12;;;;;;;4.82;3.33;;;;;;;49.82;12.70;99658.88;5029757;28;20049;-83
2021/06/14 07:26:38;;;;;;;5.07;3.10;;;;;;;49.78;12.98;99660.50;5032060;28;20045;-81
2021/06/14 07:29:06;;;;;;;6.70;3.42;;;;;;;49.92;12.68;99669.91;5031824;28;20100;-83
2021/06/14 07:31:32;;;;;;;3.90;3.23;;;;;;;50.42;12.53;99669.25;5031353;28;20053;-81
2021/06/14 07:34:01;;;;;;;5.30;3.50;;;;;;;50.96;11.95;99670.41;5031855;28;20476;-82
2021/06/14 07:36:28;;;;;;;5.93;3.40;;;;;;;50.67;12.05;99668.31;5015433;28;20073;-82
2021/06/14 07:38:54;;;;;;;4.10;3.10;;;;;;;50.54;12.24;99661.47;5033404;28;20325;-83
2021/06/14 07:41:20;;;;;;;3.40;3.10;;;;;;;50.86;11.70;99659.38;5034432;28;20037;-82
2021/06/14 07:43:47;;;;;;;3.13;2.83;;;;;;;51.31;11.72;99657.41;5025776;28;20087;-81
2021/06/14 07:46:13;;;;;;;3.30;3.00;;;;;;;51.46;11.28;99672.25;5029440;28;20067;-81
2021/06/14 07:48:38;;;;;;;2.85;2.65;;;;;;;51.44;11.48;99663.41;5033253;28;20033;-80
2021/06/14 07:51:05;;;;;;;4.10;3.70;;;;;;;50.99;11.23;99678.09;5032970;28;20041;-81
2021/06/14 07:53:31;;;;;;;3.78;3.40;;;;;;;50.63;11.81;99664.47;5046778;28;20123;-81
2021/06/14 07:55:57;;;;;;;3.33;3.13;;;;;;;50.36;11.32;99670.38;5013784;28;20037;-81
2021/06/14 07:58:24;;;;;;;3.72;3.22;;;;;;;50.45;11.70;99672.25;5036057;28;20045;-79
2021/06/14 08:00:50;;;;;;;4.47;3.38;;;;;;;50.61;11.78;99670.28;5011000;28;20045;-82
2021/06/14 08:03:16;;;;;;;5.90;3.80;;;;;;;50.81;11.35;99675.97;5012035;28;20042;-84
2021/06/14 08:05:45;;;;;;;6.97;3.72;;;;;;;50.97;11.36;99673.97;5028734;28;20128;-86
2021/06/14 08:08:12;;;;;;;4.35;3.92;;;;;;;50.38;12.00;99654.31;5011154;28;20129;-79
2021/06/14 08:10:41;;;;;;;11.52;3.90;;;;;;;50.24;11.75;99643.84;5024508;28;20558;-84
2021/06/14 08:13:08;;;;;;;4.70;3.40;;;;;;;50.21;12.44;99629.75;5014743;28;20497;-80
2021/06/14 08:15:34;;;;;;;6.47;3.90;;;;;;;49.89;12.33;99642.81;5032464;28;20111;-84
2021/06/14 08:25:31;;;;;;;3.95;3.45;;;;;;;51.61;11.10;99679.63;5032612;28;20037;-84
2021/06/14 08:27:57;;;;;;;4.82;3.50;;;;;;;51.07;11.22;99676.69;5033782;28;20037;-84
2021/06/14 08:30:25;;;;;;;3.90;3.53;;;;;;;51.20;11.24;99680.75;5029005;28;20076;-83
2021/06/14 08:32:51;;;;;;;3.75;3.30;;;;;;;51.66;11.52;99674.84;5012369;28;20038;-83
2021/06/14 08:35:22;;;;;;;4.03;3.65;;;;;;;51.23;11.21;99675.50;5028913;28;20525;-83
2021/06/14 08:37:49;;;;;;;7.68;3.22;;;;;;;50.58;11.77;99681.06;5015625;28;20125;-83
2021/06/14 08:40:21;;;;;;;5.38;3.47;;;;;;;50.53;11.73;99679.16;5029780;28;20057;-82
2021/06/14 08:42:47;;;;;;;3.40;3.10;;;;;;;50.72;11.46;99675.75;5009995;28;20037;-83
2021/06/14 08:45:14;;;;;;;4.15;3.20;;;;;;;50.58;11.76;99656.19;5008643;28;20081;-83
2021/06/14 08:47:43;;;;;;;3.72;3.30;;;;;;;50.26;11.54;99669.28;5007322;28;20709;-82
2021/06/14 08:50:12;;;;;;;7.28;3.35;;;;;;;50.25;11.45;99669.56;5027159;28;20087;-83
2021/06/14 08:52:38;;;;;;;3.55;2.80;;;;;;;50.50;11.31;99676.97;5033105;28;20045;-83
2021/06/14 08:55:06;;;;;;;3.25;3.00;;;;;;;50.75;11.10;99664.97;5023361;28;20041;-84
2021/06/14 08:57:33;;;;;;;3.50;3.20;;;;;;;51.02;11.51;99668.41;5022279;28;20105;-83
2021/06/14 09:00:00;;;;;;;6.68;3.42;;;;;;;51.21;10.92;99657.50;5022806;28;20049;-84
2021/06/14 09:02:26;;;;;;;6.22;3.30;;;;;;;49.77;11.43;99665.22;5025117;28;20037;-84
2021/06/14 09:04:52;;;;;;;3.22;2.67;;;;;;;48.50;12.34;99643.44;5016624;28;20136;-83
2021/06/14 09:07:18;;;;;;;2.90;2.70;;;;;;;49.68;11.49;99626.25;5032583;28;20040;-86
2021/06/14 09:09:45;;;;;;;3.50;3.30;;;;;;;50.66;11.39;99682.41;5038862;28;20049;-83
2021/06/14 09:12:12;;;;;;;3.58;3.20;;;;;;;49.79;11.50;99676.00;5022931;28;20041;-86
2021/06/14 09:14:43;;;;;;;4.07;3.00;;;;;;;48.74;12.42;99657.63;5023624;28;20048;-84
2021/06/14 09:17:17;;;;;;;3.58;2.90;;;;;;;49.67;12.26;99668.81;5042536;28;20568;-82
2021/06/14 09:19:56;;;;;;;4.07;3.03;;;;;;;50.73;11.66;99689.31;5040401;28;20075;-84
2021/06/14 09:22:26;;;;;;;4.63;3.00;;;;;;;50.79;11.22;99651.38;5036004;28;20140;-85
2021/06/14 09:25:01;;;;;;;4.32;2.83;;;;;;;50.87;11.37;99674.88;5037327;28;20045;-85
2021/06/14 09:27:46;;;;;;;3.90;2.85;;;;;;;49.98;11.59;99656.91;5019456;28;20025;-84
2021/06/14 09:30:17;;;;;;;3.85;3.38;;;;;;;50.15;11.37;99676.78;5017526;28;20053;-81
2021/06/14 09:33:05;;;;;;;8.07;4.38;;;;;;;50.56;11.06;99686.06;5016932;28;20041;-85
2021/06/14 09:35:37;;;;;;;2.65;2.33;;;;;;;50.16;11.12;99642.50;5012502;28;20117;-82
2021/06/14 09:38:19;;;;;;;3.55;2.95;;;;;;;50.69;11.09;99656.94;5016167;28;20057;-83
2021/06/14 09:40:53;;;;;;;2.60;2.40;;;;;;;51.35;10.76;99655.72;5024187;28;20421;-83
2021/06/14 09:43:29;;;;;;;3.13;2.92;;;;;;;51.97;10.20;99657.13;5020751;28;20033;-88
2021/06/14 09:45:57;;;;;;;3.35;2.85;;;;;;;52.03;10.48;99646.81;5019415;28;20077;-85
2021/06/14 09:48:31;;;;;;;3.60;3.10;;;;;;;51.42;10.64;99668.44;5018068;28;20069;-86
2021/06/14 09:51:05;;;;;;;3.40;3.10;;;;;;;50.63;11.15;99645.09;5035720;28;20041;-85
2021/06/14 09:53:35;;;;;;;4.63;3.20;;;;;;;50.51;10.85;99670.31;5019817;28;20053;-84
2021/06/14 09:56:35;;;;;;;3.08;2.75;;;;;;;49.86;11.05;99647.00;5033854;28;20045;-86
2021/06/14 09:59:02;;;;;;;2.85;2.60;;;;;;;49.58;11.21;99664.94;5028445;28;20080;-83
2021/06/14 10:01:30;;;;;;;3.28;2.85;;;;;;;49.54;11.63;99658.34;5014119;28;20046;-83
2021/06/14 10:03:58;;;;;;;3.10;2.80;;;;;;;48.92;12.02;99648.00;5041098;28;20048;-86
2021/06/14 10:06:44;;;;;;;2.45;2.35;;;;;;;48.70;11.49;99653.72;5017541;28;20386;-86
2021/06/14 10:09:13;;;;;;;5.78;2.33;;;;;;;48.30;11.72;99653.28;5047815;28;20041;-83
2021/06/14 10:11:41;;;;;;;3.27;2.37;;;;;;;46.83;12.41;99565.38;4998115;28;20147;-87
2021/06/14 10:14:09;;;;;;;4.05;2.33;;;;;;;47.97;12.31;99643.44;5008050;28;20775;-86
2021/06/14 10:16:36;;;;;;;5.57;2.70;;;;;;;48.43;11.62;99599.59;5049718;28;20540;-88
2021/06/14 10:19:05;;;;;;;3.65;2.60;;;;;;;47.60;12.05;99577.03;5034480;28;20047;-87
2021/06/14 10:21:51;;;;;;;2.40;2.20;;;;;;;46.96;12.61;99652.97;5034487;28;20047;-86
2021/06/14 10:24:19;;;;;;;3.47;2.50;;;;;;;45.14;12.60;99558.03;5036062;28;20041;-82
2021/06/14 10:26:50;;;;;;;4.47;2.75;;;;;;;44.13;13.69;99649.78;5031975;28;20128;-85
2021/06/14 10:29:17;;;;;;;2.50;2.30;;;;;;;42.29;14.77;99597.84;5028080;28;20037;-84
2021/06/14 10:31:46;;;;;;;5.55;3.10;;;;;;;40.68;16.41;99603.66;5018483;28;20149;-84
2021/06/14 10:34:13;;;;;;;7.25;2.90;;;;;;;39.29;18.21;99614.22;5034341;28;20053;-82
2021/06/14 10:36:44;;;;;;;6.35;3.00;;;;;;;38.36;19.58;99633.69;5032204;28;20040;-82
2021/06/14 10:39:11;;;;;;;5.88;3.03;;;;;;;37.74;19.98;99653.25;5033353;28;20062;-82
2021/06/14 10:41:37;;;;;;;3.00;2.80;;;;;;;37.08;20.28;99608.16;5031088;28;20184;-79
2021/06/14 10:44:06;;;;;;;2.92;2.72;;;;;;;36.81;21.16;99656.59;5027197;28;20045;-81
2021/06/14 10:46:32;;;;;;;3.72;2.90;;;;;;;36.38;21.86;99650.97;5028338;28;20053;-79
2021/06/14 10:49:01;;;;;;;5.45;3.28;;;;;;;35.73;22.83;99654.94;5013220;28;20038;-80
2021/06/14 10:51:28;;;;;;;5.35;3.08;;;;;;;35.39;23.14;99641.81;5010776;28;20513;-81
2021/06/14 10:54:11;;;;;;;5.03;3.20;;;;;;;34.97;23.88;99646.63;5012040;28;20531;-81
2021/06/14 10:56:39;;;;;;;3.90;3.22;;;;;;;34.61;23.84;99644.38;5013477;28;20052;-81
2021/06/14 10:59:07;;;;;;;3.72;3.42;;;;;;;34.27;24.19;99635.50;5020882;28;20045;-81
2021/06/14 11:01:39;;;;;;;4.05;2.97;;;;;;;34.10;25.08;99650.88;5031865;28;20523;-81
2021/06/14 11:04:07;;;;;;;4.07;3.28;;;;;;;33.93;25.95;99648.19;5062020;28;20053;-83
2021/06/14 11:06:36;;;;;;;3.47;3.17;;;;;;;33.74;26.07;99656.59;5042344;28;20139;-82
2021/06/14 11:09:06;;;;;;;3.40;3.10;;;;;;;33.34;26.00;99659.03;5033631;28;20069;-82
2021/06/14 11:11:55;;;;;;;3.95;2.83;;;;;;;33.14;26.71;99653.13;5000837;28;20118;-82
2021/06/14 11:14:44;;;;;;;2.83;2.63;;;;;;;32.96;26.83;99659.47;5020993;28;20129;-83
2021/06/14 11:17:20;;;;;;;3.67;2.72;;;;;;;32.79;26.74;99652.25;5022819;28;20152;-82
2021/06/14 11:20:03;;;;;;;3.20;2.90;;;;;;;32.49;27.03;99652.63;5037382;28;20049;-81
2021/06/14 11:22:34;;;;;;;4.45;2.85;;;;;;;32.21;27.94;99644.72;5014965;28;20045;-82
2021/06/14 11:25:00;;;;;;;;;;;;;;;32.18;27.40;99650.41;5032511;28;20061;-81
2021/06/14 11:27:38;;;;;;;4.57;3.10;;;;;;;31.92;27.39;99645.00;5035496;28;19917;-81
2021/06/14 11:30:13;;;;;;;4.60;3.00;;;;;;;31.55;28.23;99652.22;5029356;28;20141;-84
2021/06/14 11:32:40;;;;;;;4.30;2.83;;;;;;;31.31;28.67;99660.88;5010896;28;20146;-83
2021/06/14 11:35:07;;;;;;;4.63;2.85;;;;;;;30.79;28.92;99627.34;5010447;28;20136;-86
2021/06/14 11:37:42;;;;;;;3.00;2.70;;;;;;;30.51;29.31;99625.47;5010559;28;20247;-82
2021/06/14 11:40:10;;;;;;;3.90;3.00;;;;;;;30.45;30.29;99644.00;5032257;28;20059;-83
2021/06/14 11:42:49;;;;;;;3.38;2.78;;;;;;;30.46;29.73;99656.41;5013410;28;20132;-84